createdAt,value
2023-01-27T00:01:10.007Z,2.59
2023-01-27T00:03:37.359Z,2.59
2023-01-27T00:06:06.485Z,2.58
2023-01-27T00:08:34.129Z,2.60
2023-01-27T00:11:28.625Z,2.60
2023-01-27T00:13:55.938Z,2.61
2023-01-27T00:16:23.259Z,2.66
2023-01-27T00:18:51.550Z,2.68
2023-01-27T00:21:57.216Z,2.66
2023-01-27T00:24:36.661Z,2.66
2023-01-27T00:27:08.949Z,2.55
2023-01-27T00:29:40.446Z,2.48
2023-01-27T00:32:26.540Z,2.54
2023-01-27T00:34:53.857Z,2.59
2023-01-27T00:37:21.085Z,2.56
2023-01-27T00:39:48.357Z,2.44
2023-01-27T00:42:16.244Z,2.42
2023-01-27T00:45:03.401Z,2.45
2023-01-27T00:47:30.985Z,2.44
2023-01-27T00:49:58.213Z,2.44
2023-01-27T00:52:25.825Z,2.45
2023-01-27T00:54:53.012Z,2.48
2023-01-27T00:57:20.220Z,2.50
2023-01-27T00:59:47.435Z,2.41
2023-01-27T01:02:14.714Z,2.42
2023-01-27T01:04:41.993Z,2.48
2023-01-27T01:07:09.485Z,2.49
2023-01-27T01:09:36.680Z,2.49
2023-01-27T01:12:04.432Z,2.46
2023-01-27T01:14:31.666Z,2.47
2023-01-27T01:16:58.932Z,2.45
2023-01-27T01:19:26.709Z,2.45
2023-01-27T01:21:53.990Z,2.47
2023-01-27T01:24:21.322Z,2.48
2023-01-27T01:26:48.883Z,2.43
2023-01-27T01:29:16.207Z,2.42
2023-01-27T01:31:43.502Z,2.42
2023-01-27T01:34:10.783Z,2.46
2023-01-27T01:36:38.205Z,2.47
2023-01-27T01:39:05.616Z,2.49
2023-01-27T01:41:32.771Z,2.44
2023-01-27T01:44:25.955Z,2.47
2023-01-27T01:46:53.344Z,2.49
2023-01-27T01:49:29.573Z,2.53
2023-01-27T01:52:03.605Z,2.48
2023-01-27T01:54:43.755Z,2.35
2023-01-27T01:57:33.400Z,2.37
2023-01-27T02:00:07.582Z,2.39
2023-01-27T02:02:43.618Z,2.44
2023-01-27T02:05:20.935Z,2.44
2023-01-27T02:07:59.951Z,2.47
2023-01-27T02:10:27.277Z,2.40
2023-01-27T02:12:54.482Z,2.33
2023-01-27T02:15:21.706Z,2.36
2023-01-27T02:17:50.112Z,2.43
2023-01-27T02:20:45.038Z,2.43
2023-01-27T02:23:17.803Z,2.38
2023-01-27T02:25:55.835Z,2.27
2023-01-27T02:28:27.367Z,2.29
2023-01-27T02:30:56.098Z,2.33
2023-01-27T02:33:23.667Z,2.32
2023-01-27T02:36:13.339Z,2.25
2023-01-27T02:38:52.831Z,2.30
2023-01-27T02:41:36.865Z,2.34
2023-01-27T02:44:04.877Z,2.37
2023-01-27T02:46:32.492Z,2.37
2023-01-27T02:48:59.817Z,2.37
2023-01-27T02:51:27.195Z,2.37
2023-01-27T02:53:54.570Z,2.34
2023-01-27T02:56:22.824Z,2.35
2023-01-27T02:58:50.196Z,2.32
2023-01-27T03:01:25.334Z,2.35
2023-01-27T03:03:52.638Z,2.32
2023-01-27T03:06:20.707Z,2.30
2023-01-27T03:08:48.750Z,2.32
2023-01-27T03:11:36.875Z,2.38
2023-01-27T03:14:05.438Z,2.38
2023-01-27T03:16:51.508Z,2.38
2023-01-27T03:19:19.266Z,2.34
2023-01-27T03:21:50.972Z,2.33
2023-01-27T03:24:19.238Z,2.31
2023-01-27T03:26:47.086Z,2.33
2023-01-27T03:29:34.877Z,2.28
2023-01-27T03:32:02.487Z,2.28
2023-01-27T03:34:31.086Z,2.29
2023-01-27T03:37:29.010Z,2.24
2023-01-27T03:40:15.565Z,2.23
2023-01-27T03:43:01.761Z,2.10
2023-01-27T03:45:47.897Z,2.09
2023-01-27T03:48:17.292Z,2.13
2023-01-27T03:50:44.724Z,2.20
2023-01-27T03:53:12.052Z,2.24
2023-01-27T03:55:39.385Z,2.28
2023-01-27T03:58:26.201Z,2.22
2023-01-27T04:01:12.249Z,2.19
2023-01-27T04:03:58.409Z,2.20
2023-01-27T04:06:50.212Z,2.16
2023-01-27T04:09:29.122Z,2.16
2023-01-27T04:11:59.910Z,2.16
2023-01-27T04:14:42.162Z,2.15
2023-01-27T04:17:17.988Z,2.20
2023-01-27T04:19:46.024Z,2.21
2023-01-27T04:22:15.833Z,2.18
2023-01-27T04:24:43.397Z,2.14
2023-01-27T04:27:15.627Z,2.17
2023-01-27T04:29:43.351Z,2.17
2023-01-27T04:32:13.092Z,2.28
2023-01-27T04:34:41.375Z,2.33
2023-01-27T04:37:09.951Z,2.28
2023-01-27T04:39:37.889Z,2.26
2023-01-27T04:42:05.204Z,2.29
2023-01-27T04:44:32.449Z,2.21
2023-01-27T04:46:59.678Z,2.17
2023-01-27T04:49:27.240Z,2.18
2023-01-27T04:51:55.607Z,2.12
2023-01-27T04:54:23.068Z,2.17
2023-01-27T04:57:01.003Z,2.08
2023-01-27T04:59:28.511Z,2.07
2023-01-27T05:01:55.899Z,2.11
2023-01-27T05:04:23.270Z,2.16
2023-01-27T05:06:50.580Z,2.11
2023-01-27T05:09:17.943Z,2.06
2023-01-27T05:11:45.213Z,2.12
2023-01-27T05:14:13.874Z,2.15
2023-01-27T05:16:41.136Z,2.11
2023-01-27T05:19:09.412Z,2.11
2023-01-27T05:21:36.636Z,2.11
2023-01-27T05:24:04.141Z,2.14
2023-01-27T05:26:31.384Z,2.09
2023-01-27T05:28:59.224Z,2.12
2023-01-27T05:31:31.744Z,2.14
2023-01-27T05:34:01.944Z,2.16
2023-01-27T05:36:30.651Z,2.19
2023-01-27T05:38:59.722Z,2.17
2023-01-27T05:41:33.088Z,2.25
2023-01-27T05:44:00.586Z,2.27
2023-01-27T05:46:31.783Z,2.39
2023-01-27T05:49:05.535Z,2.31
2023-01-27T05:51:39.706Z,2.32
2023-01-27T05:54:08.540Z,2.28
2023-01-27T05:56:35.646Z,2.22
2023-01-27T05:59:02.924Z,2.19
2023-01-27T06:01:34.548Z,2.27
2023-01-27T06:04:02.204Z,2.32
2023-01-27T06:06:32.341Z,2.24
2023-01-27T06:09:00.306Z,2.22
2023-01-27T06:11:28.036Z,2.29
2023-01-27T06:13:55.662Z,2.30
2023-01-27T06:16:24.004Z,2.32
2023-01-27T06:18:52.510Z,2.26
2023-01-27T06:21:20.815Z,2.22
2023-01-27T06:23:49.118Z,2.17
2023-01-27T06:26:19.344Z,2.20
2023-01-27T06:28:46.799Z,2.23
2023-01-27T06:31:21.717Z,2.23
2023-01-27T06:33:51.354Z,2.20
2023-01-27T06:36:21.632Z,2.17
2023-01-27T06:38:50.428Z,2.16
2023-01-27T06:41:18.409Z,2.11
2023-01-27T06:43:46.165Z,2.15
2023-01-27T06:46:14.936Z,2.10
2023-01-27T06:48:42.038Z,2.09
2023-01-27T06:51:09.525Z,2.09
2023-01-27T06:53:38.112Z,2.12
2023-01-27T06:56:06.278Z,2.15
2023-01-27T06:58:33.717Z,2.20
2023-01-27T07:01:01.026Z,2.11
2023-01-27T07:03:28.194Z,2.11
2023-01-27T07:05:55.420Z,2.19
2023-01-27T07:08:23.110Z,2.30
2023-01-27T07:10:50.747Z,2.28
2023-01-27T07:13:18.826Z,2.24
2023-01-27T07:15:46.106Z,2.26
2023-01-27T07:18:14.225Z,2.24
2023-01-27T07:20:42.346Z,2.13
2023-01-27T07:23:10.559Z,2.08
2023-01-27T07:25:37.958Z,2.04
2023-01-27T07:28:06.030Z,2.15
2023-01-27T07:30:34.165Z,2.34
2023-01-27T07:33:14.590Z,2.35
2023-01-27T07:35:42.878Z,2.29
2023-01-27T07:38:10.894Z,2.31
2023-01-27T07:40:38.140Z,2.33
2023-01-27T07:43:05.356Z,2.32
2023-01-27T07:45:35.027Z,2.19
2023-01-27T07:48:07.879Z,2.16
2023-01-27T07:50:36.918Z,2.17
2023-01-27T07:53:05.719Z,2.21
2023-01-27T07:55:33.725Z,2.23
2023-01-27T07:58:01.598Z,2.34
2023-01-27T08:00:30.237Z,2.35
2023-01-27T08:02:59.221Z,2.32
2023-01-27T08:05:27.536Z,2.23
2023-01-27T08:07:58.666Z,2.31
2023-01-27T08:10:26.651Z,2.28
2023-01-27T08:12:54.042Z,2.33
2023-01-27T08:15:21.943Z,2.32
2023-01-27T08:17:59.759Z,2.40
2023-01-27T08:20:28.155Z,2.41
2023-01-27T08:22:55.874Z,2.51
2023-01-27T08:25:23.282Z,2.47
2023-01-27T08:27:56.372Z,2.43
2023-01-27T08:30:24.060Z,2.34
2023-01-27T08:32:51.340Z,2.43
2023-01-27T08:35:18.691Z,2.47
2023-01-27T08:37:48.679Z,2.58
2023-01-27T08:40:18.010Z,2.69
2023-01-27T08:42:45.422Z,2.69
2023-01-27T08:45:12.920Z,2.71
2023-01-27T08:47:40.251Z,2.74
2023-01-27T08:50:09.367Z,2.61
2023-01-27T08:52:36.911Z,2.68
2023-01-27T08:55:04.762Z,2.77
2023-01-27T08:57:32.572Z,2.88
2023-01-27T08:59:59.993Z,2.95
2023-01-27T09:02:27.323Z,3.05
2023-01-27T09:04:54.684Z,3.07
2023-01-27T09:07:22.044Z,3.02
2023-01-27T09:09:51.340Z,3.02
2023-01-27T09:12:23.292Z,3.09
2023-01-27T09:14:50.479Z,3.22
2023-01-27T09:17:19.653Z,3.23
2023-01-27T09:19:47.336Z,3.21
2023-01-27T09:22:14.684Z,3.24
2023-01-27T09:24:41.988Z,3.41
2023-01-27T09:27:09.384Z,3.34
2023-01-27T09:29:36.831Z,3.39
2023-01-27T09:32:04.848Z,3.27
2023-01-27T09:34:32.190Z,3.17
2023-01-27T09:37:09.152Z,3.30
2023-01-27T09:39:46.119Z,3.35
2023-01-27T09:43:22.417Z,3.39
2023-01-27T09:46:48.026Z,3.46
2023-01-27T09:49:45.394Z,3.51
2023-01-27T09:52:47.289Z,3.46
2023-01-27T09:55:42.825Z,3.57
2023-01-27T09:58:17.092Z,3.36
2023-01-27T10:00:46.551Z,3.37
2023-01-27T10:03:43.357Z,3.50
2023-01-27T10:07:11.295Z,3.71
2023-01-27T10:10:18.723Z,3.38
2023-01-27T10:12:58.740Z,3.47
2023-01-27T10:16:05.649Z,3.58
2023-01-27T10:19:13.905Z,3.80
2023-01-27T10:22:12.751Z,3.81
2023-01-27T10:25:01.275Z,3.89
2023-01-27T10:27:37.803Z,3.98
2023-01-27T10:30:18.330Z,3.99
2023-01-27T10:33:20.932Z,3.76
2023-01-27T10:36:00.295Z,3.19
2023-01-27T10:39:00.879Z,3.49
2023-01-27T10:42:13.341Z,3.17
2023-01-27T10:45:28.136Z,3.19
2023-01-27T10:48:25.122Z,3.32
2023-01-27T10:51:14.913Z,3.82
2023-01-27T10:54:16.409Z,3.69
2023-01-27T10:56:53.439Z,3.89
2023-01-27T11:00:28.768Z,4.10
2023-01-27T11:03:28.274Z,3.84
2023-01-27T11:06:08.428Z,3.28
2023-01-27T11:08:41.786Z,3.31
2023-01-27T11:11:28.900Z,3.54
2023-01-27T11:14:04.724Z,3.80
2023-01-27T11:16:39.038Z,3.60
2023-01-27T11:20:01.467Z,3.87
2023-01-27T11:22:55.650Z,3.88
2023-01-27T11:25:52.800Z,4.09
2023-01-27T11:28:45.893Z,3.97
2023-01-27T11:31:43.104Z,3.70
2023-01-27T11:34:45.113Z,3.49
2023-01-27T11:37:22.478Z,3.44
2023-01-27T11:39:52.824Z,3.84
2023-01-27T11:42:24.004Z,4.15
2023-01-27T11:44:56.460Z,4.19
2023-01-27T11:47:40.936Z,3.99
2023-01-27T11:50:21.006Z,3.59
2023-01-27T11:53:27.539Z,3.68
2023-01-27T11:56:03.576Z,3.63
2023-01-27T11:58:47.592Z,4.00
2023-01-27T12:01:21.684Z,3.72
2023-01-27T12:04:32.779Z,3.91
2023-01-27T12:07:15.627Z,4.22
2023-01-27T12:09:43.171Z,4.05
2023-01-27T12:12:14.890Z,4.09
2023-01-27T12:15:03.159Z,4.23
2023-01-27T12:17:47.490Z,4.31
2023-01-27T12:20:40.005Z,4.38
2023-01-27T12:23:18.387Z,4.42
2023-01-27T12:25:56.959Z,4.31
2023-01-27T12:28:45.653Z,3.89
2023-01-27T12:31:31.945Z,3.74
2023-01-27T12:34:27.599Z,3.91
2023-01-27T12:36:56.995Z,4.13
2023-01-27T12:39:38.082Z,4.19
2023-01-27T12:42:44.495Z,4.24
2023-01-27T12:45:22.773Z,4.16
2023-01-27T12:48:10.530Z,3.99
2023-01-27T12:50:41.358Z,4.04
2023-01-27T12:53:27.559Z,4.03
2023-01-27T12:56:07.980Z,4.06
2023-01-27T12:59:00.086Z,4.16
2023-01-27T13:01:42.059Z,4.08
2023-01-27T13:04:23.615Z,4.09
2023-01-27T13:07:01.813Z,4.10
2023-01-27T13:09:46.263Z,4.16
2023-01-27T13:12:20.680Z,4.01
2023-01-27T13:14:57.274Z,4.01
2023-01-27T13:17:44.416Z,3.70
2023-01-27T13:20:31.943Z,3.77
2023-01-27T13:23:23.672Z,3.79
2023-01-27T13:26:08.498Z,3.71
2023-01-27T13:29:04.123Z,3.83
2023-01-27T13:31:57.222Z,3.67
2023-01-27T13:34:58.038Z,3.64
2023-01-27T13:37:48.928Z,3.86
2023-01-27T13:40:46.234Z,3.90
2023-01-27T13:43:41.429Z,4.04
2023-01-27T13:46:30.646Z,3.70
2023-01-27T13:49:12.618Z,3.79
2023-01-27T13:51:40.109Z,3.97
2023-01-27T13:54:07.402Z,3.97
2023-01-27T13:57:50.267Z,3.98
2023-01-27T14:00:54.887Z,3.93
2023-01-27T14:03:40.915Z,3.51
2023-01-27T14:06:42.248Z,3.44
2023-01-27T14:09:45.822Z,3.40
2023-01-27T14:12:44.734Z,3.54
2023-01-27T14:15:52.010Z,3.53
2023-01-27T14:18:45.535Z,3.76
2023-01-27T14:22:20.752Z,3.79
2023-01-27T14:25:12.754Z,3.79
2023-01-27T14:27:48.727Z,3.78
2023-01-27T14:30:26.369Z,3.78
2023-01-27T14:33:01.721Z,3.81
2023-01-27T14:36:16.134Z,3.91
2023-01-27T14:39:02.775Z,3.98
2023-01-27T14:42:04.227Z,3.98
2023-01-27T14:45:04.313Z,3.74
2023-01-27T14:47:57.397Z,3.67
2023-01-27T14:50:40.021Z,3.61
2023-01-27T14:53:49.890Z,3.67
2023-01-27T14:56:46.666Z,3.58
2023-01-27T14:59:59.983Z,3.56
2023-01-27T15:02:57.229Z,3.57
2023-01-27T15:06:05.303Z,3.52
2023-01-27T15:08:48.174Z,3.45
2023-01-27T15:11:46.499Z,3.41
2023-01-27T15:14:59.288Z,3.34
2023-01-27T15:18:10.607Z,3.20
2023-01-27T15:21:30.848Z,3.19
2023-01-27T15:24:45.405Z,3.27
2023-01-27T15:27:12.996Z,3.31
2023-01-27T15:29:41.162Z,3.26
2023-01-27T15:32:17.299Z,3.20
2023-01-27T15:34:52.545Z,3.16
2023-01-27T15:37:29.997Z,3.11
2023-01-27T15:40:15.593Z,3.10
2023-01-27T15:42:58.854Z,3.10
2023-01-27T15:45:48.138Z,3.11
2023-01-27T15:48:22.501Z,3.07
2023-01-27T15:51:07.942Z,3.05
2023-01-27T15:53:44.698Z,3.01
2023-01-27T15:56:12.667Z,2.97
2023-01-27T15:58:58.960Z,2.97
2023-01-27T16:01:31.806Z,3.03
2023-01-27T16:04:25.267Z,3.01
2023-01-27T16:07:08.186Z,3.03
2023-01-27T16:10:01.723Z,3.06
2023-01-27T16:12:43.161Z,2.92
2023-01-27T16:15:39.054Z,2.86
2023-01-27T16:18:11.983Z,2.83
2023-01-27T16:20:42.358Z,2.86
2023-01-27T16:23:53.348Z,2.81
2023-01-27T16:27:07.181Z,2.78
2023-01-27T16:29:45.935Z,2.76
2023-01-27T16:32:25.545Z,2.76
2023-01-27T16:35:04.573Z,2.74
2023-01-27T16:37:37.928Z,2.76
2023-01-27T16:40:24.229Z,2.71
2023-01-27T16:42:53.595Z,2.73
2023-01-27T16:45:29.385Z,2.77
2023-01-27T16:48:05.488Z,2.70
2023-01-27T16:50:40.997Z,2.62
2023-01-27T16:53:24.922Z,2.60
2023-01-27T16:56:07.926Z,2.63
2023-01-27T16:58:46.251Z,2.69
2023-01-27T17:01:39.579Z,2.69
2023-01-27T17:04:19.781Z,2.68
2023-01-27T17:06:50.829Z,2.70
2023-01-27T17:09:31.951Z,2.70
2023-01-27T17:11:59.781Z,2.69
2023-01-27T17:14:39.798Z,2.67
2023-01-27T17:17:21.288Z,2.67
2023-01-27T17:19:52.813Z,2.66
2023-01-27T17:22:38.003Z,2.69
2023-01-27T17:25:38.285Z,2.70
2023-01-27T17:28:13.562Z,2.66
2023-01-27T17:30:42.550Z,2.65
2023-01-27T17:33:20.604Z,2.66
2023-01-27T17:36:12.228Z,2.71
2023-01-27T17:38:51.357Z,2.72
2023-01-27T17:41:41.457Z,2.72
2023-01-27T17:44:15.841Z,2.64
2023-01-27T17:46:43.123Z,2.60
2023-01-27T17:49:17.761Z,2.61
2023-01-27T17:51:54.354Z,2.66
2023-01-27T17:54:34.189Z,2.72
2023-01-27T17:57:32.461Z,2.68
2023-01-27T18:00:10.579Z,2.61
2023-01-27T18:02:58.592Z,2.58
2023-01-27T18:05:32.040Z,2.60
2023-01-27T18:08:01.450Z,2.50
2023-01-27T18:10:44.039Z,2.47
2023-01-27T18:13:27.231Z,2.43
2023-01-27T18:16:21.957Z,2.48
2023-01-27T18:18:50.237Z,2.44
2023-01-27T18:21:27.736Z,2.37
2023-01-27T18:24:00.118Z,2.33
2023-01-27T18:26:37.725Z,2.14
2023-01-27T18:29:22.731Z,1.99
2023-01-27T18:31:59.576Z,1.83
2023-01-27T18:34:47.253Z,1.70
2023-01-27T18:37:39.517Z,1.48
2023-01-27T18:40:38.467Z,1.32
2023-01-27T18:43:06.094Z,1.26
2023-01-27T18:45:33.440Z,1.23
2023-01-27T18:48:01.070Z,1.06
2023-01-27T18:50:29.786Z,0.94
2023-01-27T18:52:57.230Z,0.83
2023-01-27T18:55:30.511Z,0.80
2023-01-27T18:58:00.187Z,0.78
2023-01-27T19:00:35.884Z,0.83
2023-01-27T19:03:05.450Z,0.80
2023-01-27T19:05:35.842Z,0.72
2023-01-27T19:08:04.726Z,0.67
2023-01-27T19:10:34.994Z,0.68
2023-01-27T19:13:04.640Z,0.75
2023-01-27T19:15:40.116Z,0.83
2023-01-27T19:18:24.958Z,0.83
2023-01-27T19:20:53.881Z,0.77
2023-01-27T19:23:22.151Z,0.81
2023-01-27T19:25:57.517Z,0.85
2023-01-27T19:28:36.042Z,0.85
2023-01-27T19:31:07.296Z,0.89
2023-01-27T19:33:37.127Z,0.89
2023-01-27T19:36:23.092Z,0.89
2023-01-27T19:39:19.992Z,0.82
2023-01-27T19:41:47.344Z,0.78
2023-01-27T19:44:15.685Z,0.77
2023-01-27T19:46:43.479Z,0.78
2023-01-27T19:49:21.169Z,0.79
2023-01-27T19:51:48.562Z,0.77
2023-01-27T19:54:16.946Z,0.74
2023-01-27T19:56:47.227Z,0.67
2023-01-27T19:59:14.489Z,0.64
2023-01-27T20:01:41.727Z,0.65
2023-01-27T20:04:08.986Z,0.68
2023-01-27T20:06:36.304Z,0.64
2023-01-27T20:09:04.238Z,0.63
2023-01-27T20:11:38.398Z,0.58
2023-01-27T20:14:15.486Z,0.61
2023-01-27T20:16:43.592Z,0.66
2023-01-27T20:19:15.298Z,0.75
2023-01-27T20:21:44.826Z,0.75
2023-01-27T20:24:17.166Z,0.78
2023-01-27T20:26:45.413Z,0.78
2023-01-27T20:29:13.966Z,0.70
2023-01-27T20:31:41.531Z,0.67
2023-01-27T20:34:08.751Z,0.70
2023-01-27T20:36:36.098Z,0.69
2023-01-27T20:39:04.687Z,0.63
2023-01-27T20:41:31.989Z,0.58
2023-01-27T20:44:00.580Z,0.54
2023-01-27T20:46:29.639Z,0.53
2023-01-27T20:49:03.360Z,0.54
2023-01-27T20:51:30.567Z,0.56
2023-01-27T20:54:00.076Z,0.45
2023-01-27T20:56:27.527Z,0.38
2023-01-27T20:58:54.713Z,0.39
2023-01-27T21:01:23.912Z,0.40
2023-01-27T21:03:51.334Z,0.37
2023-01-27T21:06:20.009Z,0.35
2023-01-27T21:08:49.126Z,0.31
2023-01-27T21:11:20.030Z,0.26
2023-01-27T21:13:48.793Z,0.20
2023-01-27T21:16:16.129Z,0.21
2023-01-27T21:18:44.219Z,0.22
2023-01-27T21:21:25.388Z,0.21
2023-01-27T21:23:56.746Z,0.21
2023-01-27T21:26:24.787Z,0.16
2023-01-27T21:28:52.878Z,0.25
2023-01-27T21:31:24.214Z,0.14
2023-01-27T21:33:51.950Z,-0.04
2023-01-27T21:36:19.733Z,-0.03
2023-01-27T21:38:47.373Z,0.04
2023-01-27T21:41:39.135Z,-0.02
2023-01-27T21:44:53.577Z,-0.12
2023-01-27T21:47:20.833Z,-0.24
2023-01-27T21:50:00.356Z,-0.26
2023-01-27T21:52:41.793Z,-0.29
2023-01-27T21:55:17.471Z,-0.30
2023-01-27T21:57:47.376Z,-0.32
2023-01-27T22:00:25.608Z,-0.34
2023-01-27T22:03:02.098Z,-0.38
2023-01-27T22:05:33.988Z,-0.39
2023-01-27T22:08:02.304Z,-0.46
2023-01-27T22:10:31.946Z,-0.54
2023-01-27T22:13:03.987Z,-0.57
2023-01-27T22:15:35.165Z,-0.59
2023-01-27T22:18:02.545Z,-0.63
2023-01-27T22:20:29.947Z,-0.65
2023-01-27T22:22:57.222Z,-0.73
2023-01-27T22:25:31.087Z,-0.69
2023-01-27T22:27:58.439Z,-0.65
2023-01-27T22:30:25.805Z,-0.72
2023-01-27T22:32:54.909Z,-0.70
2023-01-27T22:35:22.345Z,-0.69
2023-01-27T22:37:53.123Z,-0.68
2023-01-27T22:40:20.515Z,-0.63
2023-01-27T22:42:51.372Z,-0.70
2023-01-27T22:45:18.881Z,-0.84
2023-01-27T22:47:46.383Z,-0.88
2023-01-27T22:50:13.602Z,-0.93
2023-01-27T22:52:40.977Z,-0.88
2023-01-27T22:55:12.560Z,-0.90
2023-01-27T22:57:48.709Z,-0.99
2023-01-27T23:00:16.987Z,-1.06
2023-01-27T23:02:44.316Z,-1.09
2023-01-27T23:05:11.830Z,-1.05
2023-01-27T23:07:39.487Z,-1.04
2023-01-27T23:10:07.965Z,-1.06
2023-01-27T23:12:35.262Z,-1.15
2023-01-27T23:15:02.551Z,-1.14
2023-01-27T23:17:30.510Z,-1.20
2023-01-27T23:19:57.810Z,-1.30
2023-01-27T23:22:25.213Z,-1.30
2023-01-27T23:24:52.523Z,-1.32
2023-01-27T23:27:19.884Z,-1.34
2023-01-27T23:29:47.132Z,-1.36
2023-01-27T23:32:14.623Z,-1.47
2023-01-27T23:34:41.837Z,-1.54
2023-01-27T23:37:09.139Z,-1.54
2023-01-27T23:39:36.639Z,-1.54
2023-01-27T23:42:04.088Z,-1.56
2023-01-27T23:44:31.300Z,-1.70
2023-01-27T23:46:58.793Z,-1.67
2023-01-27T23:49:26.524Z,-1.61
2023-01-27T23:51:54.023Z,-1.63
2023-01-27T23:54:21.225Z,-1.68
2023-01-27T23:56:48.456Z,-1.67
2023-01-27T23:59:15.900Z,-1.73
